Scali Sanlorenzo — 9HA2400 — position and weather

sailwx.info

Track history (hours):
 
Tides and Currents Weather Stations Pressure Air Temp Water Temp Dewpoint Dewpoint Depression Visibility Wind Speed Wind Dir Waves Ship Positions

Scali Sanlorenzo

Last reported at 2018-Feb-26 01:48 UTC. Time now 2018-Feb-26 02:08 UTC.
Position N 47°29' W 006°20'.

Length 89 m; draft 5.8 m.

Type: Tanker. MMSI: 248532000.

Date/timePositionNaut miles runAvg speedWind from/ knotsBaromVisibWave heightAir tempDewpointWater temp
2018-Feb-26 01:48N 47°29' W 006°20'510.2
2018-Feb-26 01:18N 47°24' W 006°23'1110.5
2018-Feb-26 00:15N 47°13' W 006°29'  
2018-Feb-20 01:47N 49°22' W 004°30'413.3
2018-Feb-20 01:27N 49°24' W 004°24'4412.1
2018-Feb-19 21:46N 49°48' W 003°26'310.2
2018-Feb-19 21:29N 49°49' W 003°22'510.0
2018-Feb-19 21:00N 49°52' W 003°15'6 9.9
2018-Feb-19 20:24N 49°55' W 003°07'410.1
2018-Feb-19 20:00N 49°57' W 003°02'510.4
2018-Feb-19 19:30N 49°59' W 002°55'610.9
2018-Feb-19 18:59N 50°01' W 002°46'711.9
2018-Feb-19 18:25N 50°03' W 002°36'8613.4
2018-Feb-19 12:01N 50°26' W 000°27'1 9.9
2018-Feb-19 11:56N 50°27' W 000°26'4 9.9
2018-Feb-19 11:30N 50°28' W 000°19'5 9.7
2018-Feb-19 11:00N 50°29' W 000°12'5 9.7
2018-Feb-19 10:30N 50°30' W 000°05'5 9.9
2018-Feb-19 10:01N 50°32' E 000°03'510.4
2018-Feb-19 09:30N 50°33' E 000°10'511.0
2018-Feb-19 09:00N 50°35' E 000°19'611.8
2018-Feb-19 08:30N 50°36' E 000°28'612.3
2018-Feb-19 08:00N 50°39' E 000°37'712.9
2018-Feb-19 07:30N 50°42' E 000°45'713.2
2018-Feb-19 07:00N 50°46' E 000°54'713.1
2018-Feb-19 06:28N 50°50' E 001°03'612.7
2018-Feb-19 06:00N 50°54' E 001°10'612.2
2018-Feb-19 05:30N 50°58' E 001°17'611.5
2018-Feb-19 05:00N 51°02' E 001°23'510.8
2018-Feb-19 04:30N 51°05' E 001°30'5 9.6
2018-Feb-19 04:00N 51°09' E 001°36'5 9.1
2018-Feb-19 03:30N 51°12' E 001°41'5 9.2
2018-Feb-19 03:00N 51°16' E 001°42'5 9.2
2018-Feb-19 02:30N 51°21' E 001°44'510.0
2018-Feb-19 02:00N 51°26' E 001°44'511.0
2018-Feb-19 01:30N 51°31' E 001°45'612.1
2018-Feb-19 01:00N 51°37' E 001°45'612.9
2018-Feb-19 00:30N 51°44' E 001°45'713.7
2018-Feb-19 00:00N 51°51' E 001°45'714.0
2018-Feb-18 23:30N 51°58' E 001°45'714.1
2018-Feb-18 23:00N 52°04' E 001°49'714.2
2018-Feb-18 22:30N 52°11' E 001°49'2714.8
2018-Feb-18 20:40N 52°38' E 001°58'214.3
2018-Feb-18 20:30N 52°40' E 001°59'612.3
2018-Feb-18 20:00N 52°46' E 001°57'713.5
2018-Feb-18 19:31N 52°50' E 001°48'713.0
2018-Feb-18 19:00N 52°54' E 001°39'612.7
2018-Feb-18 18:30N 52°59' E 001°32'612.2
2018-Feb-18 18:01N 53°04' E 001°27'611.8
2018-Feb-18 17:31N 53°09' E 001°21'611.8
2018-Feb-18 17:00N 53°14' E 001°16'611.7
2018-Feb-18 16:30N 53°19' E 001°11'10411.1
2018-Feb-18 07:13N 54°40' W 000°40'313.0
2018-Feb-18 06:59N 54°40' W 000°45'613.0
2018-Feb-18 06:30N 54°40' W 000°56'15 0.6
2018-Feb-17 07:26N 54°37' W 000°31'511.8
2018-Feb-17 07:00N 54°34' W 000°24'611.4
2018-Feb-17 06:30N 54°31' W 000°16'611.3
2018-Feb-17 06:00N 54°27' W 000°10'611.2
2018-Feb-17 05:30N 54°22' W 000°04'510.9
2018-Feb-17 05:00N 54°18' E 000°02'510.9
2018-Feb-17 04:30N 54°14' E 000°08'610.9
2018-Feb-17 04:00N 54°09' E 000°13'4612.6
2018-Feb-17 00:20N 53°32' E 000°59'514.3
2018-Feb-16 23:59N 53°27' E 001°04'714.0
2018-Feb-16 23:30N 53°22' E 001°09'612.9
2018-Feb-16 23:00N 53°16' E 001°15'612.2
2018-Feb-16 22:30N 53°11' E 001°20'611.4
2018-Feb-16 22:00N 53°06' E 001°25'510.8
2018-Feb-16 21:30N 53°01' E 001°29'510.0
2018-Feb-16 21:00N 52°57' E 001°35'5 9.6
2018-Feb-16 20:30N 52°54' E 001°40'5 9.6
2018-Feb-16 20:00N 52°51' E 001°46'510.0
2018-Feb-16 19:30N 52°48' E 001°53'510.1
2018-Feb-16 19:00N 52°45' E 001°60'3412.3
2018-Feb-16 16:15N 52°11' E 001°55'314.0
2018-Feb-16 16:01N 52°08' E 001°54'714.3
2018-Feb-16 15:31N 52°01' E 001°51'714.4
2018-Feb-16 15:00N 51°54' E 001°49'713.7
2018-Feb-16 14:30N 51°47' E 001°49'713.3
2018-Feb-16 14:00N 51°40' E 001°50'713.2
2018-Feb-16 13:30N 51°34' E 001°49'713.5
2018-Feb-16 13:00N 51°27' E 001°47'713.6
2018-Feb-16 12:30N 51°21' E 001°44'713.7
2018-Feb-16 12:00N 51°14' E 001°40'612.7
2018-Feb-16 11:30N 51°09' E 001°36'510.7
2018-Feb-16 11:00N 51°03' E 001°36'713.0
2018-Feb-16 10:29N 50°58' E 001°29'  
Track history (hours):
 
Tides and Currents Weather Stations Pressure Air Temp Water Temp Dewpoint Dewpoint Depression Visibility Wind Speed Wind Dir Waves Ship Positions

Scali Sanlorenzo

Last reported at 2018-Feb-26 01:48 UTC. Time now 2018-Feb-26 02:08 UTC.
Position N 47°29' W 006°20'.

Length 89 m; draft 5.8 m.

Type: Tanker. MMSI: 248532000.

Date/timePositionNaut miles runAvg speedWind from/ knotsBaromVisibWave heightAir tempDewpointWater temp
2018-Feb-26 01:48N 47°29' W 006°20'510.2
2018-Feb-26 01:18N 47°24' W 006°23'1110.5
2018-Feb-26 00:15N 47°13' W 006°29'  
2018-Feb-20 01:47N 49°22' W 004°30'413.3
2018-Feb-20 01:27N 49°24' W 004°24'4412.1
2018-Feb-19 21:46N 49°48' W 003°26'310.2
2018-Feb-19 21:29N 49°49' W 003°22'510.0
2018-Feb-19 21:00N 49°52' W 003°15'6 9.9
2018-Feb-19 20:24N 49°55' W 003°07'410.1
2018-Feb-19 20:00N 49°57' W 003°02'510.4
2018-Feb-19 19:30N 49°59' W 002°55'610.9
2018-Feb-19 18:59N 50°01' W 002°46'711.9
2018-Feb-19 18:25N 50°03' W 002°36'8613.4
2018-Feb-19 12:01N 50°26' W 000°27'1 9.9
2018-Feb-19 11:56N 50°27' W 000°26'4 9.9
2018-Feb-19 11:30N 50°28' W 000°19'5 9.7
2018-Feb-19 11:00N 50°29' W 000°12'5 9.7
2018-Feb-19 10:30N 50°30' W 000°05'5 9.9
2018-Feb-19 10:01N 50°32' E 000°03'510.4
2018-Feb-19 09:30N 50°33' E 000°10'511.0
2018-Feb-19 09:00N 50°35' E 000°19'611.8
2018-Feb-19 08:30N 50°36' E 000°28'612.3
2018-Feb-19 08:00N 50°39' E 000°37'712.9
2018-Feb-19 07:30N 50°42' E 000°45'713.2
2018-Feb-19 07:00N 50°46' E 000°54'713.1
2018-Feb-19 06:28N 50°50' E 001°03'612.7
2018-Feb-19 06:00N 50°54' E 001°10'612.2
2018-Feb-19 05:30N 50°58' E 001°17'611.5
2018-Feb-19 05:00N 51°02' E 001°23'510.8
2018-Feb-19 04:30N 51°05' E 001°30'5 9.6
2018-Feb-19 04:00N 51°09' E 001°36'5 9.1
2018-Feb-19 03:30N 51°12' E 001°41'5 9.2
2018-Feb-19 03:00N 51°16' E 001°42'5 9.2
2018-Feb-19 02:30N 51°21' E 001°44'510.0
2018-Feb-19 02:00N 51°26' E 001°44'511.0
2018-Feb-19 01:30N 51°31' E 001°45'612.1
2018-Feb-19 01:00N 51°37' E 001°45'612.9
2018-Feb-19 00:30N 51°44' E 001°45'713.7
2018-Feb-19 00:00N 51°51' E 001°45'714.0
2018-Feb-18 23:30N 51°58' E 001°45'714.1
2018-Feb-18 23:00N 52°04' E 001°49'714.2
2018-Feb-18 22:30N 52°11' E 001°49'2714.8
2018-Feb-18 20:40N 52°38' E 001°58'214.3
2018-Feb-18 20:30N 52°40' E 001°59'612.3
2018-Feb-18 20:00N 52°46' E 001°57'713.5
2018-Feb-18 19:31N 52°50' E 001°48'713.0
2018-Feb-18 19:00N 52°54' E 001°39'612.7
2018-Feb-18 18:30N 52°59' E 001°32'612.2
2018-Feb-18 18:01N 53°04' E 001°27'611.8
2018-Feb-18 17:31N 53°09' E 001°21'611.8
2018-Feb-18 17:00N 53°14' E 001°16'611.7
2018-Feb-18 16:30N 53°19' E 001°11'10411.1
2018-Feb-18 07:13N 54°40' W 000°40'313.0
2018-Feb-18 06:59N 54°40' W 000°45'613.0
2018-Feb-18 06:30N 54°40' W 000°56'15 0.6
2018-Feb-17 07:26N 54°37' W 000°31'511.8
2018-Feb-17 07:00N 54°34' W 000°24'611.4
2018-Feb-17 06:30N 54°31' W 000°16'611.3
2018-Feb-17 06:00N 54°27' W 000°10'611.2
2018-Feb-17 05:30N 54°22' W 000°04'510.9
2018-Feb-17 05:00N 54°18' E 000°02'510.9
2018-Feb-17 04:30N 54°14' E 000°08'610.9
2018-Feb-17 04:00N 54°09' E 000°13'4612.6
2018-Feb-17 00:20N 53°32' E 000°59'514.3
2018-Feb-16 23:59N 53°27' E 001°04'714.0
2018-Feb-16 23:30N 53°22' E 001°09'612.9
2018-Feb-16 23:00N 53°16' E 001°15'612.2
2018-Feb-16 22:30N 53°11' E 001°20'611.4
2018-Feb-16 22:00N 53°06' E 001°25'510.8
2018-Feb-16 21:30N 53°01' E 001°29'510.0
2018-Feb-16 21:00N 52°57' E 001°35'5 9.6
2018-Feb-16 20:30N 52°54' E 001°40'5 9.6
2018-Feb-16 20:00N 52°51' E 001°46'510.0
2018-Feb-16 19:30N 52°48' E 001°53'510.1
2018-Feb-16 19:00N 52°45' E 001°60'3412.3
2018-Feb-16 16:15N 52°11' E 001°55'314.0
2018-Feb-16 16:01N 52°08' E 001°54'714.3
2018-Feb-16 15:31N 52°01' E 001°51'714.4
2018-Feb-16 15:00N 51°54' E 001°49'713.7
2018-Feb-16 14:30N 51°47' E 001°49'713.3
2018-Feb-16 14:00N 51°40' E 001°50'713.2
2018-Feb-16 13:30N 51°34' E 001°49'713.5
2018-Feb-16 13:00N 51°27' E 001°47'713.6
2018-Feb-16 12:30N 51°21' E 001°44'713.7
2018-Feb-16 12:00N 51°14' E 001°40'612.7
2018-Feb-16 11:30N 51°09' E 001°36'510.7
2018-Feb-16 11:00N 51°03' E 001°36'713.0
2018-Feb-16 10:29N 50°58' E 001°29'  

Dump ship's entire track history